createdAt,value
2016-08-16T00:00:00.762Z,1011.26
2016-08-16T00:01:00.735Z,1011.24
2016-08-16T00:02:00.711Z,1011.28
2016-08-16T00:03:00.689Z,1011.28
2016-08-16T00:04:00.666Z,1011.23
2016-08-16T00:05:00.641Z,1011.23
2016-08-16T00:06:00.619Z,1011.22
2016-08-16T00:07:00.595Z,1011.19
2016-08-16T00:08:00.573Z,1011.21
2016-08-16T00:09:00.551Z,1011.2
2016-08-16T00:10:00.529Z,1011.23
2016-08-16T00:11:00.505Z,1011.22
2016-08-16T00:12:00.482Z,1011.24
2016-08-16T00:13:00.458Z,1011.25
2016-08-16T00:14:00.436Z,1011.2
2016-08-16T00:15:00.413Z,1011.25
2016-08-16T00:16:00.389Z,1011.24
2016-08-16T00:17:00.366Z,1011.24
2016-08-16T00:18:00.342Z,1011.26
2016-08-16T00:19:00.320Z,1011.26
2016-08-16T00:20:00.297Z,1011.28
2016-08-16T00:21:00.274Z,1011.26
2016-08-16T00:22:00.250Z,1011.22
2016-08-16T00:23:00.228Z,1011.28
2016-08-16T00:24:00.205Z,1011.26
2016-08-16T00:25:00.183Z,1011.25
2016-08-16T00:26:00.158Z,1011.28
2016-08-16T00:27:00.136Z,1011.28
2016-08-16T00:28:00.112Z,1011.22
2016-08-16T00:29:00.089Z,1011.24
2016-08-16T00:30:00.066Z,1011.23
2016-08-16T00:31:00.043Z,1011.21
2016-08-16T00:32:00.021Z,1011.23
2016-08-16T00:32:59.997Z,1011.19
2016-08-16T00:33:59.973Z,1011.18
2016-08-16T00:34:59.951Z,1011.18
2016-08-16T00:35:59.927Z,1011.18
2016-08-16T00:36:59.904Z,1011.17
2016-08-16T00:37:59.882Z,1011.18
2016-08-16T00:38:59.860Z,1011.14
2016-08-16T00:39:59.835Z,1011.12
2016-08-16T00:40:59.811Z,1011.14
2016-08-16T00:41:59.789Z,1011.13
2016-08-16T00:42:59.766Z,1011.1
2016-08-16T00:43:59.742Z,1011.11
2016-08-16T00:44:59.731Z,1011.09
2016-08-16T00:45:59.696Z,1011.09
2016-08-16T00:46:59.672Z,1011.11
2016-08-16T00:47:59.649Z,1011.08
2016-08-16T00:48:59.625Z,1011.09
2016-08-16T00:49:59.602Z,1011.07
2016-08-16T00:50:59.578Z,1011.05
2016-08-16T00:51:59.555Z,1011.05
2016-08-16T00:52:59.532Z,1011.07
2016-08-16T00:53:59.508Z,1011.03
2016-08-16T00:54:59.484Z,1011.07
2016-08-16T00:55:59.462Z,1011.01
2016-08-16T00:56:59.440Z,1011.05
2016-08-16T00:57:59.414Z,1011.02
2016-08-16T00:58:59.392Z,1011.01
2016-08-16T00:59:59.368Z,1011.01
2016-08-16T01:00:59.345Z,1010.99
2016-08-16T01:01:59.324Z,1011
2016-08-16T01:02:59.303Z,1010.99
2016-08-16T01:03:59.274Z,1011.03
2016-08-16T01:04:59.252Z,1010.99
2016-08-16T01:05:59.228Z,1010.98
2016-08-16T01:06:59.204Z,1011.05
2016-08-16T01:07:59.180Z,1011
2016-08-16T01:08:59.156Z,1010.97
2016-08-16T01:09:59.134Z,1010.97
2016-08-16T01:10:59.109Z,1010.96
2016-08-16T01:11:59.087Z,1010.95
2016-08-16T01:12:59.063Z,1010.93
2016-08-16T01:13:59.040Z,1010.88
2016-08-16T01:14:59.020Z,1010.91
2016-08-16T01:15:58.993Z,1010.94
2016-08-16T01:16:58.972Z,1010.93
2016-08-16T01:17:58.947Z,1010.9
2016-08-16T01:18:58.924Z,1010.9
2016-08-16T01:19:58.898Z,1010.91
2016-08-16T01:20:58.876Z,1010.9
2016-08-16T01:21:58.850Z,1010.9
2016-08-16T01:22:58.828Z,1010.94
2016-08-16T01:23:58.804Z,1010.89
2016-08-16T01:24:58.781Z,1010.87
2016-08-16T01:25:58.758Z,1010.87
2016-08-16T01:26:58.735Z,1010.89
2016-08-16T01:27:58.709Z,1010.86
2016-08-16T01:28:58.687Z,1010.85
2016-08-16T01:29:58.663Z,1010.85
2016-08-16T01:30:58.639Z,1010.84
2016-08-16T01:31:58.617Z,1010.82
2016-08-16T01:32:58.592Z,1010.84
2016-08-16T01:33:58.568Z,1010.87
2016-08-16T01:34:58.544Z,1010.84
2016-08-16T01:35:58.522Z,1010.83
2016-08-16T01:36:58.497Z,1010.85
2016-08-16T01:37:58.474Z,1010.88
2016-08-16T01:38:58.451Z,1010.83
2016-08-16T01:39:58.426Z,1010.85
2016-08-16T01:40:58.403Z,1010.86
2016-08-16T01:41:58.377Z,1010.85
2016-08-16T01:42:58.355Z,1010.84
2016-08-16T01:43:58.331Z,1010.86
2016-08-16T01:44:58.307Z,1010.87
2016-08-16T01:45:58.283Z,1010.86
2016-08-16T01:46:58.259Z,1010.87
2016-08-16T01:47:58.236Z,1010.85
2016-08-16T01:48:58.212Z,1010.84
2016-08-16T01:49:58.188Z,1010.81
2016-08-16T01:50:58.164Z,1010.8
2016-08-16T01:51:58.142Z,1010.77
2016-08-16T01:52:58.136Z,1010.81
2016-08-16T01:53:58.093Z,1010.79
2016-08-16T01:54:58.069Z,1010.79
2016-08-16T01:55:58.045Z,1010.83
2016-08-16T01:56:58.021Z,1010.8
2016-08-16T01:57:57.997Z,1010.81
2016-08-16T01:58:57.973Z,1010.8
2016-08-16T01:59:57.950Z,1010.81
2016-08-16T02:00:57.926Z,1010.8
2016-08-16T02:01:57.901Z,1010.83
2016-08-16T02:02:57.877Z,1010.82
2016-08-16T02:03:57.852Z,1010.8
2016-08-16T02:04:57.829Z,1010.76
2016-08-16T02:05:57.805Z,1010.81
2016-08-16T02:06:57.782Z,1010.78
2016-08-16T02:07:57.757Z,1010.77
2016-08-16T02:08:57.733Z,1010.74
2016-08-16T02:09:57.709Z,1010.77
2016-08-16T02:10:57.685Z,1010.8
2016-08-16T02:11:57.662Z,1010.79
2016-08-16T02:12:57.638Z,1010.78
2016-08-16T02:13:57.615Z,1010.8
2016-08-16T02:14:57.590Z,1010.78
2016-08-16T02:15:57.566Z,1010.77
2016-08-16T02:16:57.543Z,1010.77
2016-08-16T02:17:57.520Z,1010.76
2016-08-16T02:18:57.494Z,1010.76
2016-08-16T02:19:57.470Z,1010.79
2016-08-16T02:20:57.446Z,1010.83
2016-08-16T02:21:57.423Z,1010.79
2016-08-16T02:22:57.398Z,1010.78
2016-08-16T02:23:57.374Z,1010.78
2016-08-16T02:24:57.351Z,1010.81
2016-08-16T02:25:57.327Z,1010.79
2016-08-16T02:26:57.302Z,1010.79
2016-08-16T02:27:57.278Z,1010.78
2016-08-16T02:28:57.254Z,1010.74
2016-08-16T02:29:57.230Z,1010.78
2016-08-16T02:30:57.206Z,1010.76
2016-08-16T02:31:57.182Z,1010.72
2016-08-16T02:32:57.157Z,1010.72
2016-08-16T02:33:57.133Z,1010.74
2016-08-16T02:34:57.109Z,1010.74
2016-08-16T02:35:57.086Z,1010.75
2016-08-16T02:36:57.060Z,1010.72
2016-08-16T02:37:57.041Z,1010.71
2016-08-16T02:38:57.013Z,1010.75
2016-08-16T02:39:56.996Z,1010.74
2016-08-16T02:40:56.964Z,1010.74
2016-08-16T02:41:56.939Z,1010.76
2016-08-16T02:42:56.915Z,1010.74
2016-08-16T02:43:56.891Z,1010.79
2016-08-16T02:44:56.866Z,1010.75
2016-08-16T02:45:56.842Z,1010.71
2016-08-16T02:46:56.819Z,1010.69
2016-08-16T02:47:56.793Z,1010.71
2016-08-16T02:48:56.770Z,1010.73
2016-08-16T02:49:56.746Z,1010.73
2016-08-16T02:50:56.722Z,1010.7
2016-08-16T02:51:56.696Z,1010.67
2016-08-16T02:52:56.673Z,1010.68
2016-08-16T02:53:56.649Z,1010.66
2016-08-16T02:54:56.625Z,1010.68
2016-08-16T02:55:56.600Z,1010.66
2016-08-16T02:56:56.576Z,1010.67
2016-08-16T02:57:56.551Z,1010.67
2016-08-16T02:58:56.527Z,1010.7
2016-08-16T02:59:56.503Z,1010.68
2016-08-16T03:00:56.479Z,1010.67
2016-08-16T03:01:56.456Z,1010.67
2016-08-16T03:02:56.431Z,1010.69
2016-08-16T03:03:56.405Z,1010.7
2016-08-16T03:04:56.383Z,1010.67
2016-08-16T03:05:56.358Z,1010.67
2016-08-16T03:06:56.333Z,1010.58
2016-08-16T03:07:56.309Z,1010.57
2016-08-16T03:08:56.286Z,1010.57
2016-08-16T03:09:56.260Z,1010.55
2016-08-16T03:10:56.235Z,1010.56
2016-08-16T03:11:56.213Z,1010.57
2016-08-16T03:12:56.188Z,1010.56
2016-08-16T03:13:56.161Z,1010.58
2016-08-16T03:14:56.139Z,1010.59
2016-08-16T03:15:56.114Z,1010.58
2016-08-16T03:16:56.090Z,1010.57
2016-08-16T03:17:56.065Z,1010.59
2016-08-16T03:18:56.041Z,1010.54
2016-08-16T03:19:56.018Z,1010.51
2016-08-16T03:20:55.993Z,1010.57
2016-08-16T03:21:55.968Z,1010.54
2016-08-16T03:22:55.944Z,1010.54
2016-08-16T03:23:55.974Z,1010.53
2016-08-16T03:24:55.895Z,1010.54
2016-08-16T03:25:55.873Z,1010.49
2016-08-16T03:26:55.851Z,1010.46
2016-08-16T03:27:55.823Z,1010.45
2016-08-16T03:28:55.798Z,1010.48
2016-08-16T03:29:55.774Z,1010.49
2016-08-16T03:30:55.750Z,1010.47
2016-08-16T03:31:55.725Z,1010.47
2016-08-16T03:32:55.703Z,1010.42
2016-08-16T03:33:55.677Z,1010.42
2016-08-16T03:34:55.653Z,1010.39
2016-08-16T03:35:55.628Z,1010.37
2016-08-16T03:36:55.604Z,1010.34
2016-08-16T03:37:55.582Z,1010.34
2016-08-16T03:38:55.555Z,1010.34
2016-08-16T03:39:55.549Z,1010.35
2016-08-16T03:40:55.508Z,1010.35
2016-08-16T03:41:55.484Z,1010.32
2016-08-16T03:42:55.459Z,1010.36
2016-08-16T03:43:55.435Z,1010.34
2016-08-16T03:44:55.410Z,1010.38
2016-08-16T03:45:55.387Z,1010.33
2016-08-16T03:46:55.362Z,1010.31
2016-08-16T03:47:55.338Z,1010.28
2016-08-16T03:48:55.315Z,1010.28
2016-08-16T03:49:55.290Z,1010.32
2016-08-16T03:50:55.266Z,1010.32
2016-08-16T03:51:55.241Z,1010.33
2016-08-16T03:52:55.228Z,1010.29
2016-08-16T03:53:55.194Z,1010.29
2016-08-16T03:54:55.169Z,1010.29
2016-08-16T03:55:55.145Z,1010.3
2016-08-16T03:56:55.119Z,1010.29
2016-08-16T03:57:55.098Z,1010.28
2016-08-16T03:58:55.072Z,1010.31
2016-08-16T03:59:55.055Z,1010.28
2016-08-16T04:00:55.023Z,1010.27
2016-08-16T04:01:54.999Z,1010.3
2016-08-16T04:02:54.974Z,1010.25
2016-08-16T04:03:54.949Z,1010.27
2016-08-16T04:04:54.924Z,1010.25
2016-08-16T04:05:54.901Z,1010.23
2016-08-16T04:06:54.876Z,1010.23
2016-08-16T04:07:54.850Z,1010.21
2016-08-16T04:08:54.826Z,1010.24
2016-08-16T04:09:54.802Z,1010.22
2016-08-16T04:10:54.779Z,1010.23
2016-08-16T04:11:54.754Z,1010.18
2016-08-16T04:12:54.730Z,1010.21
2016-08-16T04:13:54.705Z,1010.21
2016-08-16T04:14:54.682Z,1010.21
2016-08-16T04:15:54.655Z,1010.19
2016-08-16T04:16:54.632Z,1010.21
2016-08-16T04:17:54.608Z,1010.2
2016-08-16T04:18:54.581Z,1010.2
2016-08-16T04:19:54.557Z,1010.22
2016-08-16T04:20:54.533Z,1010.25
2016-08-16T04:21:54.516Z,1010.27
2016-08-16T04:22:54.484Z,1010.26
2016-08-16T04:23:54.460Z,1010.28
2016-08-16T04:24:54.437Z,1010.24
2016-08-16T04:25:54.411Z,1010.21
2016-08-16T04:26:54.387Z,1010.25
2016-08-16T04:27:54.362Z,1010.24
2016-08-16T04:28:54.338Z,1010.23
2016-08-16T04:29:54.781Z,1010.21
2016-08-16T04:30:54.289Z,1010.26
2016-08-16T04:31:54.264Z,1010.25
2016-08-16T04:32:54.241Z,1010.3
2016-08-16T04:33:54.215Z,1010.27
2016-08-16T04:34:54.193Z,1010.23
2016-08-16T04:35:54.168Z,1010.27
2016-08-16T04:36:54.144Z,1010.25
2016-08-16T04:37:54.219Z,1010.23
2016-08-16T04:38:54.094Z,1010.21
2016-08-16T04:39:54.071Z,1010.22
2016-08-16T04:40:54.046Z,1010.21
2016-08-16T04:41:54.131Z,1010.21
2016-08-16T04:42:53.998Z,1010.17
2016-08-16T04:43:53.972Z,1010.19
2016-08-16T04:44:53.947Z,1010.19
2016-08-16T04:45:53.924Z,1010.2
2016-08-16T04:46:53.900Z,1010.19
2016-08-16T04:47:53.875Z,1010.22
2016-08-16T04:48:53.851Z,1010.21
2016-08-16T04:49:53.828Z,1010.26
2016-08-16T04:50:53.850Z,1010.23
2016-08-16T04:51:53.779Z,1010.26
2016-08-16T04:52:53.756Z,1010.27
2016-08-16T04:53:53.731Z,1010.21
2016-08-16T04:54:53.759Z,1010.21
2016-08-16T04:55:53.682Z,1010.21
2016-08-16T04:56:53.657Z,1010.21
2016-08-16T04:57:53.634Z,1010.22
2016-08-16T04:58:53.609Z,1010.21
2016-08-16T04:59:53.584Z,1010.19
2016-08-16T05:00:53.560Z,1010.22
2016-08-16T05:01:53.537Z,1010.24
2016-08-16T05:02:53.512Z,1010.19
2016-08-16T05:03:53.713Z,1010.17
2016-08-16T05:04:53.474Z,1010.13
2016-08-16T05:05:53.442Z,1010.14
2016-08-16T05:06:53.418Z,1010.17
2016-08-16T05:07:53.392Z,1010.17
2016-08-16T05:08:53.370Z,1010.14
2016-08-16T05:09:53.346Z,1010.09
2016-08-16T05:10:53.320Z,1010.1
2016-08-16T05:11:53.298Z,1010.09
2016-08-16T05:12:53.273Z,1010.12
2016-08-16T05:13:53.249Z,1010.1
2016-08-16T05:14:53.225Z,1010.09
2016-08-16T05:15:53.201Z,1010.08
2016-08-16T05:16:53.178Z,1010.08
2016-08-16T05:17:53.154Z,1010.1
2016-08-16T05:18:53.181Z,1010.09
2016-08-16T05:19:53.106Z,1010.1
2016-08-16T05:20:53.083Z,1010.11
2016-08-16T05:21:53.059Z,1010.13
2016-08-16T05:22:53.035Z,1010.08
2016-08-16T05:23:53.425Z,1010.09
2016-08-16T05:24:52.988Z,1010.06
2016-08-16T05:25:52.964Z,1010.12
2016-08-16T05:26:52.941Z,1010.06
2016-08-16T05:27:52.917Z,1010.11
2016-08-16T05:28:52.894Z,1010.07
2016-08-16T05:29:52.871Z,1010.08
2016-08-16T05:30:52.847Z,1010.07
2016-08-16T05:31:52.824Z,1010.02
2016-08-16T05:32:52.800Z,1010.08
2016-08-16T05:33:52.777Z,1010.04
2016-08-16T05:34:52.753Z,1010.08
2016-08-16T05:35:52.728Z,1010.03
2016-08-16T05:36:52.707Z,1010.05
2016-08-16T05:37:52.736Z,1010.04
2016-08-16T05:38:52.711Z,1010.05
2016-08-16T05:39:52.635Z,1010.08
2016-08-16T05:40:52.611Z,1010.07
2016-08-16T05:41:52.590Z,1010.03
2016-08-16T05:42:52.565Z,1010.04
2016-08-16T05:43:52.542Z,1010.04
2016-08-16T05:44:52.520Z,1010.02
2016-08-16T05:45:52.496Z,1010.03
2016-08-16T05:46:52.472Z,1010
2016-08-16T05:47:52.449Z,1010.01
2016-08-16T05:48:52.426Z,1009.98
2016-08-16T05:49:52.403Z,1009.96
2016-08-16T05:50:52.380Z,1009.96
2016-08-16T05:51:52.357Z,1009.94
2016-08-16T05:52:52.334Z,1009.92
2016-08-16T05:53:52.312Z,1009.87
2016-08-16T05:54:52.288Z,1009.9
2016-08-16T05:55:52.379Z,1009.86
2016-08-16T05:56:52.242Z,1009.91
2016-08-16T05:57:52.217Z,1009.88
2016-08-16T05:58:52.196Z,1009.87
2016-08-16T05:59:52.175Z,1009.86
2016-08-16T06:00:52.151Z,1009.88
2016-08-16T06:01:52.128Z,1009.91
2016-08-16T06:02:52.104Z,1009.88
2016-08-16T06:03:52.082Z,1009.86
2016-08-16T06:04:52.058Z,1009.86
2016-08-16T06:05:52.036Z,1009.89
2016-08-16T06:06:52.015Z,1009.81
2016-08-16T06:07:51.991Z,1009.84
2016-08-16T06:08:51.969Z,1009.83
2016-08-16T06:09:51.946Z,1009.82
2016-08-16T06:10:51.925Z,1009.82
2016-08-16T06:11:51.902Z,1009.85
2016-08-16T06:12:51.942Z,1009.84
2016-08-16T06:13:51.857Z,1009.86
2016-08-16T06:14:51.834Z,1009.82
2016-08-16T06:15:51.813Z,1009.85
2016-08-16T06:16:51.792Z,1009.81
2016-08-16T06:17:51.771Z,1009.79
2016-08-16T06:18:52.036Z,1009.82
2016-08-16T06:19:52.012Z,1009.76
2016-08-16T06:20:52.062Z,1009.78
2016-08-16T06:21:51.795Z,1009.79
2016-08-16T06:22:51.666Z,1009.78
2016-08-16T06:23:51.697Z,1009.78
2016-08-16T06:24:51.624Z,1009.77
2016-08-16T06:25:51.921Z,1009.78
2016-08-16T06:26:51.581Z,1009.78
2016-08-16T06:27:51.561Z,1009.77
2016-08-16T06:28:51.541Z,1009.78
2016-08-16T06:29:51.919Z,1009.8
2016-08-16T06:30:51.774Z,1009.76
2016-08-16T06:31:51.487Z,1009.74
2016-08-16T06:32:51.459Z,1009.77
2016-08-16T06:33:51.445Z,1009.76
2016-08-16T06:34:51.419Z,1009.76
2016-08-16T06:35:51.405Z,1009.78
2016-08-16T06:36:51.380Z,1009.79
2016-08-16T06:37:51.359Z,1009.76
2016-08-16T06:38:51.339Z,1009.75
2016-08-16T06:39:51.320Z,1009.76
2016-08-16T06:40:51.358Z,1009.76
2016-08-16T06:41:51.282Z,1009.76
2016-08-16T06:42:51.275Z,1009.74
2016-08-16T06:43:51.418Z,1009.78
2016-08-16T06:44:51.433Z,1009.76
2016-08-16T06:45:51.328Z,1009.81
2016-08-16T06:46:51.316Z,1009.8
2016-08-16T06:47:51.265Z,1009.82
2016-08-16T06:48:51.254Z,1009.8
2016-08-16T06:49:51.225Z,1009.79
2016-08-16T06:50:51.172Z,1009.78
2016-08-16T06:51:51.211Z,1009.79
2016-08-16T06:52:51.126Z,1009.77
2016-08-16T06:53:51.187Z,1009.77
2016-08-16T06:54:51.285Z,1009.77
2016-08-16T06:55:51.167Z,1009.79
2016-08-16T06:56:51.133Z,1009.8
2016-08-16T06:57:51.108Z,1009.75
2016-08-16T06:58:51.283Z,1009.81
2016-08-16T06:59:51.080Z,1009.8
2016-08-16T07:00:51.132Z,1009.8
2016-08-16T07:01:51.140Z,1009.8
2016-08-16T07:02:51.101Z,1009.81
2016-08-16T07:03:51.083Z,1009.8
2016-08-16T07:04:50.954Z,1009.79
2016-08-16T07:05:51.088Z,1009.8
2016-08-16T07:06:50.924Z,1009.8
2016-08-16T07:07:50.883Z,1009.83
2016-08-16T07:08:50.898Z,1009.81
2016-08-16T07:09:50.982Z,1009.79
2016-08-16T07:10:51.086Z,1009.75
2016-08-16T07:11:50.905Z,1009.83
2016-08-16T07:12:50.907Z,1009.81
2016-08-16T07:13:51.030Z,1009.8
2016-08-16T07:14:50.690Z,1009.75
2016-08-16T07:15:50.804Z,1009.76
2016-08-16T07:16:50.720Z,1009.74
2016-08-16T07:17:50.648Z,1009.75
2016-08-16T07:18:50.683Z,1009.75
2016-08-16T07:19:50.657Z,1009.78
2016-08-16T07:20:50.810Z,1009.74
2016-08-16T07:21:50.743Z,1009.76
2016-08-16T07:22:50.661Z,1009.77
2016-08-16T07:23:50.667Z,1009.76
2016-08-16T07:24:50.638Z,1009.76
2016-08-16T07:25:50.699Z,1009.78
2016-08-16T07:26:50.741Z,1009.73
2016-08-16T07:27:50.577Z,1009.71
2016-08-16T07:28:50.561Z,1009.73
2016-08-16T07:29:50.552Z,1009.73
2016-08-16T07:30:50.528Z,1009.7
2016-08-16T07:31:50.399Z,1009.68
2016-08-16T07:32:50.482Z,1009.69
2016-08-16T07:33:50.367Z,1009.7
2016-08-16T07:34:50.487Z,1009.69
2016-08-16T07:35:50.396Z,1009.66
2016-08-16T07:36:50.488Z,1009.67
2016-08-16T07:37:50.400Z,1009.64
2016-08-16T07:38:50.370Z,1009.65
2016-08-16T07:39:50.387Z,1009.65
2016-08-16T07:40:50.297Z,1009.6
2016-08-16T07:41:50.257Z,1009.63
2016-08-16T07:42:50.347Z,1009.57
2016-08-16T07:43:50.336Z,1009.6
2016-08-16T07:44:50.497Z,1009.53
2016-08-16T07:45:50.184Z,1009.52
2016-08-16T07:46:50.284Z,1009.59
2016-08-16T07:47:50.280Z,1009.54
2016-08-16T07:48:50.263Z,1009.53
2016-08-16T07:49:50.229Z,1009.52
2016-08-16T07:50:50.443Z,1009.52
2016-08-16T07:51:50.330Z,1009.54
2016-08-16T07:52:50.380Z,1009.53
2016-08-16T07:53:50.324Z,1009.55
2016-08-16T07:54:50.326Z,1009.55
2016-08-16T07:55:50.288Z,1009.56
2016-08-16T07:56:50.318Z,1009.51
2016-08-16T07:57:50.343Z,1009.54
2016-08-16T07:58:50.332Z,1009.53
2016-08-16T07:59:50.259Z,1009.57
2016-08-16T08:00:50.242Z,1009.56
2016-08-16T08:01:50.243Z,1009.56
2016-08-16T08:02:50.248Z,1009.54
2016-08-16T08:03:50.172Z,1009.59
2016-08-16T08:04:50.168Z,1009.53
2016-08-16T08:05:50.178Z,1009.52
2016-08-16T08:06:50.075Z,1009.54
2016-08-16T08:07:50.040Z,1009.5
2016-08-16T08:08:50.044Z,1009.48
2016-08-16T08:09:49.999Z,1009.47
2016-08-16T08:10:49.988Z,1009.48
2016-08-16T08:11:50.084Z,1009.43
2016-08-16T08:12:49.993Z,1009.46
2016-08-16T08:13:49.977Z,1009.48
2016-08-16T08:14:50.084Z,1009.43
2016-08-16T08:15:49.884Z,1009.42
2016-08-16T08:16:49.968Z,1009.38
2016-08-16T08:17:49.850Z,1009.4
2016-08-16T08:18:49.858Z,1009.44
2016-08-16T08:19:49.828Z,1009.42
2016-08-16T08:20:49.977Z,1009.41
2016-08-16T08:21:49.795Z,1009.38
2016-08-16T08:22:49.808Z,1009.5
2016-08-16T08:23:49.748Z,1009.42
2016-08-16T08:24:49.749Z,1009.42
2016-08-16T08:25:49.759Z,1009.39
2016-08-16T08:26:49.659Z,1009.35
2016-08-16T08:27:49.748Z,1009.34
2016-08-16T08:28:49.713Z,1009.31
2016-08-16T08:29:49.611Z,1009.36
2016-08-16T08:30:49.932Z,1009.33
2016-08-16T08:31:49.814Z,1009.3
2016-08-16T08:32:49.724Z,1009.32
2016-08-16T08:33:49.599Z,1009.34
2016-08-16T08:34:49.717Z,1009.36
2016-08-16T08:35:49.780Z,1009.27
2016-08-16T08:36:49.801Z,1009.3
2016-08-16T08:37:49.620Z,1009.24
2016-08-16T08:38:49.678Z,1009.1
2016-08-16T08:39:49.783Z,1009.27
2016-08-16T08:40:49.589Z,1009.23
2016-08-16T08:41:49.603Z,1009.23
2016-08-16T08:42:49.799Z,1009.19
2016-08-16T08:43:49.806Z,1009.2
2016-08-16T08:44:49.586Z,1009.21
2016-08-16T08:45:49.617Z,1009.23
2016-08-16T08:46:49.704Z,1009.21
2016-08-16T08:47:49.752Z,1009.23
2016-08-16T08:48:49.573Z,1009.16
2016-08-16T08:49:49.565Z,1009.17
2016-08-16T08:50:49.767Z,1009.17
2016-08-16T08:51:49.363Z,1009.18
2016-08-16T08:52:49.612Z,1009.19
2016-08-16T08:53:49.622Z,1009.15
2016-08-16T08:54:49.683Z,1009.16
2016-08-16T08:55:49.566Z,1009.14
2016-08-16T08:56:49.519Z,1009.18
2016-08-16T08:57:49.493Z,1009.13
2016-08-16T08:58:49.685Z,1009.03
2016-08-16T08:59:49.662Z,1009.08
2016-08-16T09:00:49.530Z,1009.08
2016-08-16T09:01:49.433Z,1009.05
2016-08-16T09:02:49.421Z,1009.05
2016-08-16T09:03:49.240Z,1009.08
2016-08-16T09:04:49.366Z,1009.06
2016-08-16T09:05:49.361Z,1009.07
2016-08-16T09:06:49.345Z,1009.02
2016-08-16T09:07:49.275Z,1009.04
2016-08-16T09:08:49.188Z,1009.06
2016-08-16T09:09:49.343Z,1009.03
2016-08-16T09:10:49.178Z,1009.15
2016-08-16T09:11:49.300Z,1009.11
2016-08-16T09:12:49.353Z,1009.13
2016-08-16T09:13:49.369Z,1009.05
2016-08-16T09:14:49.376Z,1009.03
2016-08-16T09:15:49.130Z,1009.07
2016-08-16T09:16:49.424Z,1009.07
2016-08-16T09:17:49.309Z,1009.07
2016-08-16T09:18:49.433Z,1009.05
2016-08-16T09:19:49.528Z,1009.11
2016-08-16T09:20:49.154Z,1009.04
2016-08-16T09:21:49.090Z,1009.05
2016-08-16T09:22:49.268Z,1009.06
2016-08-16T09:23:49.059Z,1009.04
2016-08-16T09:24:49.387Z,1009.11
2016-08-16T09:25:49.090Z,1009.03
2016-08-16T09:26:49.054Z,1009.04
2016-08-16T09:27:49.236Z,1009.05
2016-08-16T09:28:49.140Z,1009
2016-08-16T09:29:49.292Z,1009.04
2016-08-16T09:30:48.996Z,1009
2016-08-16T09:31:48.986Z,1008.99
2016-08-16T09:32:49.224Z,1008.95
2016-08-16T09:33:48.966Z,1008.96
2016-08-16T09:34:48.957Z,1008.95
2016-08-16T09:35:49.018Z,1008.94
2016-08-16T09:36:48.938Z,1008.95
2016-08-16T09:37:48.928Z,1008.94
2016-08-16T09:38:48.922Z,1008.95
2016-08-16T09:39:48.945Z,1008.97
2016-08-16T09:40:48.902Z,1008.95
2016-08-16T09:41:48.888Z,1008.95
2016-08-16T09:42:48.878Z,1009.03
2016-08-16T09:43:48.927Z,1009.02
2016-08-16T09:44:48.855Z,1008.92
2016-08-16T09:45:48.844Z,1009.01
2016-08-16T09:46:48.832Z,1008.95
2016-08-16T09:47:48.823Z,1008.94
2016-08-16T09:48:48.809Z,1008.88
2016-08-16T09:49:48.798Z,1008.99
2016-08-16T09:50:48.786Z,1008.92
2016-08-16T09:51:48.843Z,1008.94
2016-08-16T09:52:48.763Z,1008.91
2016-08-16T09:53:48.748Z,1008.9
2016-08-16T09:54:48.737Z,1008.91
2016-08-16T09:55:48.722Z,1008.95
2016-08-16T09:56:48.838Z,1008.88
2016-08-16T09:57:48.697Z,1008.85
2016-08-16T09:58:48.684Z,1008.89
2016-08-16T09:59:48.722Z,1008.83
2016-08-16T10:00:48.658Z,1008.87
2016-08-16T10:01:48.643Z,1008.87
2016-08-16T10:02:48.628Z,1008.85
2016-08-16T10:03:48.647Z,1008.84
2016-08-16T10:04:48.602Z,1008.88
2016-08-16T10:05:48.589Z,1008.91
2016-08-16T10:06:48.573Z,1008.94
2016-08-16T10:07:48.560Z,1008.94
2016-08-16T10:08:48.546Z,1008.92
2016-08-16T10:09:48.532Z,1008.95
2016-08-16T10:10:48.516Z,1008.88
2016-08-16T10:11:48.531Z,1008.82
2016-08-16T10:12:48.788Z,1008.79
2016-08-16T10:13:48.470Z,1008.83
2016-08-16T10:14:48.456Z,1008.84
2016-08-16T10:15:48.687Z,1008.82
2016-08-16T10:16:48.425Z,1008.85
2016-08-16T10:17:48.411Z,1008.77
2016-08-16T10:18:48.395Z,1008.86
2016-08-16T10:19:48.382Z,1008.84
2016-08-16T10:20:48.364Z,1008.82
2016-08-16T10:21:48.350Z,1008.87
2016-08-16T10:22:48.435Z,1008.89
2016-08-16T10:23:48.428Z,1008.86
2016-08-16T10:24:48.399Z,1008.83
2016-08-16T10:25:48.288Z,1008.83
2016-08-16T10:26:48.273Z,1008.84
2016-08-16T10:27:48.257Z,1008.83
2016-08-16T10:28:48.245Z,1008.81
2016-08-16T10:29:48.312Z,1008.88
2016-08-16T10:30:48.212Z,1008.8
2016-08-16T10:31:48.197Z,1008.76
2016-08-16T10:32:48.234Z,1008.81
2016-08-16T10:33:48.405Z,1008.86
2016-08-16T10:34:48.149Z,1008.8
2016-08-16T10:35:48.311Z,1008.82
2016-08-16T10:36:48.290Z,1008.74
2016-08-16T10:37:48.101Z,1008.73
2016-08-16T10:38:48.085Z,1008.72
2016-08-16T10:39:48.069Z,1008.71
2016-08-16T10:40:48.181Z,1008.7
2016-08-16T10:41:48.040Z,1008.72
2016-08-16T10:42:48.023Z,1008.73
2016-08-16T10:43:48.009Z,1008.7
2016-08-16T10:44:47.994Z,1008.69
2016-08-16T10:45:48.034Z,1008.67
2016-08-16T10:46:47.961Z,1008.71
2016-08-16T10:47:48.047Z,1008.72
2016-08-16T10:48:47.953Z,1008.8
2016-08-16T10:49:47.913Z,1008.76
2016-08-16T10:50:48.063Z,1008.77
2016-08-16T10:51:47.883Z,1008.73
2016-08-16T10:52:47.919Z,1008.7
2016-08-16T10:53:47.849Z,1008.73
2016-08-16T10:54:47.915Z,1008.68
2016-08-16T10:55:47.820Z,1008.67
2016-08-16T10:56:47.838Z,1008.61
2016-08-16T10:57:47.853Z,1008.66
2016-08-16T10:58:47.773Z,1008.64
2016-08-16T10:59:47.975Z,1008.66
2016-08-16T11:00:47.796Z,1008.64
2016-08-16T11:01:47.779Z,1008.57
2016-08-16T11:02:47.739Z,1008.61
2016-08-16T11:03:47.739Z,1008.57
2016-08-16T11:04:47.680Z,1008.57
2016-08-16T11:05:47.799Z,1008.56
2016-08-16T11:06:47.649Z,1008.49
2016-08-16T11:08:47.804Z,1008.5
2016-08-16T11:09:47.834Z,1008.54
2016-08-16T11:10:47.806Z,1008.5
2016-08-16T11:11:47.572Z,1008.54
2016-08-16T11:12:47.785Z,1008.52
2016-08-16T11:13:47.542Z,1008.58
2016-08-16T11:14:47.528Z,1008.59
2016-08-16T11:15:47.512Z,1008.53
2016-08-16T11:16:47.681Z,1008.5
2016-08-16T11:17:47.483Z,1008.45
2016-08-16T11:18:47.468Z,1008.53
2016-08-16T11:19:47.452Z,1008.47
2016-08-16T11:20:47.474Z,1008.43
2016-08-16T11:21:47.474Z,1008.43
2016-08-16T11:22:47.716Z,1008.43
2016-08-16T11:23:47.417Z,1008.43
2016-08-16T11:24:47.453Z,1008.43
2016-08-16T11:25:47.487Z,1008.44
2016-08-16T11:26:47.512Z,1008.39
2016-08-16T11:27:47.590Z,1008.47
2016-08-16T11:28:47.431Z,1008.4
2016-08-16T11:29:47.403Z,1008.37
2016-08-16T11:30:47.591Z,1008.39
2016-08-16T11:31:47.513Z,1008.41
2016-08-16T11:32:47.473Z,1008.38
2016-08-16T11:33:47.519Z,1008.37
2016-08-16T11:34:47.287Z,1008.36
2016-08-16T11:35:47.247Z,1008.31
2016-08-16T11:36:47.223Z,1008.31
2016-08-16T11:37:47.206Z,1008.33
2016-08-16T11:38:47.501Z,1008.29
2016-08-16T11:39:47.356Z,1008.29
2016-08-16T11:40:47.467Z,1008.27
2016-08-16T11:41:47.415Z,1008.26
2016-08-16T11:42:47.354Z,1008.32
2016-08-16T11:43:47.344Z,1008.31
2016-08-16T11:44:47.114Z,1008.29
2016-08-16T11:45:47.168Z,1008.29
2016-08-16T11:46:47.079Z,1008.24
2016-08-16T11:47:47.064Z,1008.22
2016-08-16T11:48:47.054Z,1008.19
2016-08-16T11:49:47.351Z,1008.2
2016-08-16T11:50:47.193Z,1008.19
2016-08-16T11:51:47.117Z,1008.16
2016-08-16T11:52:46.990Z,1008.19
2016-08-16T11:53:47.050Z,1008.14
2016-08-16T11:54:47.037Z,1008.14
2016-08-16T11:55:47.041Z,1008.11
2016-08-16T11:56:47.195Z,1008.05
2016-08-16T11:57:47.139Z,1008.17
2016-08-16T11:58:46.947Z,1008.24
2016-08-16T11:59:46.978Z,1008.2
2016-08-16T12:00:46.878Z,1008.12
2016-08-16T12:01:46.862Z,1008.16
2016-08-16T12:02:46.851Z,1008.09
2016-08-16T12:03:47.027Z,1008.16
2016-08-16T12:04:47.328Z,1008.2
2016-08-16T12:05:47.041Z,1008.11
2016-08-16T12:06:47.080Z,1008.11
2016-08-16T12:07:46.880Z,1008.1
2016-08-16T12:08:46.793Z,1008.06